createdAt,value
2023-01-11T00:01:54.125Z,100779.09
2023-01-11T00:04:23.300Z,100775.63
2023-01-11T00:06:50.041Z,100774.78
2023-01-11T00:09:17.644Z,100769.59
2023-01-11T00:11:44.966Z,100780.00
2023-01-11T00:14:11.826Z,100774.81
2023-01-11T00:16:40.130Z,100777.44
2023-01-11T00:19:07.424Z,100781.75
2023-01-11T00:21:34.615Z,100766.19
2023-01-11T00:24:01.723Z,100759.31
2023-01-11T00:26:29.036Z,100754.13
2023-01-11T00:28:55.730Z,100758.44
2023-01-11T00:31:23.013Z,100748.06
2023-01-11T00:33:51.611Z,100748.94
2023-01-11T00:36:18.677Z,100748.94
2023-01-11T00:38:51.508Z,100759.34
2023-01-11T00:41:37.739Z,100755.00
2023-01-11T00:44:24.759Z,100748.94
2023-01-11T00:47:10.684Z,100741.16
2023-01-11T00:49:38.034Z,100742.91
2023-01-11T00:52:08.942Z,100737.72
2023-01-11T00:54:37.700Z,100721.25
2023-01-11T00:57:07.234Z,100724.75
2023-01-11T00:59:34.429Z,100732.53
2023-01-11T01:02:01.101Z,100725.59
2023-01-11T01:04:27.788Z,100721.25
2023-01-11T01:06:55.463Z,100723.88
2023-01-11T01:09:22.600Z,100716.06
2023-01-11T01:11:49.374Z,100724.75
2023-01-11T01:14:31.502Z,100726.50
2023-01-11T01:16:59.749Z,100712.63
2023-01-11T01:19:27.849Z,100717.81
2023-01-11T01:21:56.317Z,100718.69
2023-01-11T01:24:23.629Z,100723.00
2023-01-11T01:26:50.731Z,100716.09
2023-01-11T01:29:17.426Z,100712.63
2023-01-11T01:31:44.775Z,100710.06
2023-01-11T01:34:12.286Z,100709.19
2023-01-11T01:36:39.269Z,100713.53
2023-01-11T01:39:06.939Z,100707.50
2023-01-11T01:41:34.387Z,100701.41
2023-01-11T01:44:03.521Z,100709.22
2023-01-11T01:46:32.798Z,100693.59
2023-01-11T01:48:59.695Z,100688.41
2023-01-11T01:51:29.497Z,100695.34
2023-01-11T01:53:58.675Z,100688.41
2023-01-11T01:56:28.248Z,100686.69
2023-01-11T01:58:57.798Z,100689.28
2023-01-11T02:01:45.197Z,100679.75
2023-01-11T02:04:33.008Z,100691.00
2023-01-11T02:07:02.165Z,100684.94
2023-01-11T02:09:29.354Z,100691.88
2023-01-11T02:11:59.146Z,100681.47
2023-01-11T02:14:27.772Z,100685.78
2023-01-11T02:16:56.655Z,100691.03
2023-01-11T02:19:40.794Z,100681.50
2023-01-11T02:22:27.058Z,100683.19
2023-01-11T02:24:57.121Z,100671.09
2023-01-11T02:27:33.047Z,100658.94
2023-01-11T02:30:18.928Z,100661.53
2023-01-11T02:33:04.996Z,100657.19
2023-01-11T02:35:34.849Z,100650.28
2023-01-11T02:38:01.990Z,100650.28
2023-01-11T02:40:35.311Z,100641.59
2023-01-11T02:43:35.707Z,100650.28
2023-01-11T02:46:10.163Z,100645.94
2023-01-11T02:48:40.348Z,100646.81
2023-01-11T02:51:12.376Z,100639.00
2023-01-11T02:53:47.362Z,100635.53
2023-01-11T02:56:20.953Z,100639.88
2023-01-11T02:58:49.511Z,100626.88
2023-01-11T03:01:16.646Z,100631.19
2023-01-11T03:03:44.274Z,100645.06
2023-01-11T03:06:14.084Z,100643.34
2023-01-11T03:08:44.469Z,100634.69
2023-01-11T03:11:45.015Z,100643.31
2023-01-11T03:14:24.040Z,100632.91
2023-01-11T03:17:06.111Z,100623.38
2023-01-11T03:19:53.216Z,100635.50
2023-01-11T03:22:22.513Z,100643.31
2023-01-11T03:25:05.753Z,100633.78
2023-01-11T03:27:47.891Z,100636.38
2023-01-11T03:30:21.945Z,100634.63
2023-01-11T03:32:52.713Z,100624.25
2023-01-11T03:35:19.260Z,100629.44
2023-01-11T03:37:45.894Z,100641.59
2023-01-11T03:40:16.837Z,100629.44
2023-01-11T03:43:05.799Z,100638.09
2023-01-11T03:45:35.716Z,100629.41
2023-01-11T03:48:03.790Z,100627.69
2023-01-11T03:50:31.605Z,100620.75
2023-01-11T03:53:00.609Z,100619.88
2023-01-11T03:55:31.375Z,100614.66
2023-01-11T03:57:58.817Z,100620.75
2023-01-11T04:00:26.852Z,100610.34
2023-01-11T04:02:54.207Z,100610.34
2023-01-11T04:05:20.980Z,100611.22
2023-01-11T04:07:48.556Z,100602.53
2023-01-11T04:10:15.707Z,100600.81
2023-01-11T04:12:42.590Z,100604.28
2023-01-11T04:15:10.057Z,100613.81
2023-01-11T04:17:36.662Z,100607.72
2023-01-11T04:20:03.634Z,100606.88
2023-01-11T04:22:30.255Z,100606.88
2023-01-11T04:24:56.843Z,100584.31
2023-01-11T04:27:23.762Z,100594.69
2023-01-11T04:29:50.341Z,100590.38
2023-01-11T04:32:17.065Z,100596.44
2023-01-11T04:34:44.188Z,100594.69
2023-01-11T04:37:12.389Z,100594.66
2023-01-11T04:39:39.283Z,100585.13
2023-01-11T04:42:18.618Z,100592.94
2023-01-11T04:44:49.009Z,100586.81
2023-01-11T04:47:16.105Z,100585.97
2023-01-11T04:49:42.948Z,100587.69
2023-01-11T04:52:10.160Z,100587.66
2023-01-11T04:54:37.679Z,100584.19
2023-01-11T04:57:05.420Z,100584.16
2023-01-11T04:59:32.280Z,100592.81
2023-01-11T05:01:58.861Z,100591.03
2023-01-11T05:04:25.792Z,100593.63
2023-01-11T05:06:52.872Z,100588.41
2023-01-11T05:09:19.577Z,100584.94
2023-01-11T05:11:46.326Z,100581.47
2023-01-11T05:14:14.401Z,100580.59
2023-01-11T05:16:41.463Z,100584.91
2023-01-11T05:19:09.938Z,100593.59
2023-01-11T05:21:39.227Z,100586.63
2023-01-11T05:24:07.315Z,100590.09
2023-01-11T05:26:36.477Z,100592.66
2023-01-11T05:29:07.343Z,100588.34
2023-01-11T05:31:34.820Z,100597.84
2023-01-11T05:34:01.416Z,100588.34
2023-01-11T05:36:28.836Z,100589.16
2023-01-11T05:38:56.253Z,100592.63
2023-01-11T05:41:24.399Z,100594.38
2023-01-11T05:44:10.447Z,100590.00
2023-01-11T05:46:38.739Z,100590.88
2023-01-11T05:49:06.523Z,100583.91
2023-01-11T05:51:33.855Z,100588.25
2023-01-11T05:54:01.271Z,100588.25
2023-01-11T05:56:28.525Z,100596.97
2023-01-11T05:58:55.665Z,100587.41
2023-01-11T06:01:23.047Z,100588.25
2023-01-11T06:03:50.015Z,100589.97
2023-01-11T06:06:17.871Z,100591.69
2023-01-11T06:08:45.011Z,100589.03
2023-01-11T06:11:12.485Z,100568.22
2023-01-11T06:13:39.206Z,100576.91
2023-01-11T06:16:08.131Z,100582.94
2023-01-11T06:18:36.513Z,100585.41
2023-01-11T06:21:04.102Z,100589.81
2023-01-11T06:23:32.632Z,100585.50
2023-01-11T06:26:03.138Z,100575.97
2023-01-11T06:28:30.289Z,100589.81
2023-01-11T06:30:58.354Z,100587.19
2023-01-11T06:33:26.404Z,100601.06
2023-01-11T06:35:53.552Z,100606.25
2023-01-11T06:38:21.965Z,100606.25
2023-01-11T06:40:56.562Z,100596.66
2023-01-11T06:43:24.305Z,100602.69
2023-01-11T06:45:51.058Z,100607.88
2023-01-11T06:48:19.679Z,100599.13
2023-01-11T06:50:50.782Z,100599.03
2023-01-11T06:53:17.788Z,100605.88
2023-01-11T06:55:45.116Z,100613.59
2023-01-11T06:58:11.842Z,100619.53
2023-01-11T07:00:38.666Z,100620.41
2023-01-11T07:03:06.309Z,100616.06
2023-01-11T07:05:34.127Z,100622.94
2023-01-11T07:08:01.080Z,100629.88
2023-01-11T07:10:28.707Z,100636.84
2023-01-11T07:12:56.331Z,100649.00
2023-01-11T07:15:23.039Z,100642.91
2023-01-11T07:17:53.718Z,100655.03
2023-01-11T07:20:20.419Z,100655.88
2023-01-11T07:22:47.333Z,100664.59
2023-01-11T07:25:14.489Z,100670.72
2023-01-11T07:27:41.919Z,100674.97
2023-01-11T07:30:10.000Z,100663.53
2023-01-11T07:32:37.153Z,100676.59
2023-01-11T07:35:04.444Z,100680.06
2023-01-11T07:37:35.172Z,100664.41
2023-01-11T07:40:02.325Z,100656.56
2023-01-11T07:42:48.346Z,100653.94
2023-01-11T07:45:15.870Z,100674.84
2023-01-11T07:47:42.852Z,100671.41
2023-01-11T07:50:09.931Z,100673.16
2023-01-11T07:52:36.646Z,100668.78
2023-01-11T07:55:04.439Z,100667.94
2023-01-11T07:57:31.133Z,100676.56
2023-01-11T07:59:58.527Z,100694.00
2023-01-11T08:02:25.506Z,100692.19
2023-01-11T08:04:52.221Z,100690.41
2023-01-11T08:07:18.982Z,100689.59
2023-01-11T08:09:45.725Z,100688.72
2023-01-11T08:12:31.240Z,100706.13
2023-01-11T08:14:58.454Z,100704.34
2023-01-11T08:17:26.031Z,100707.00
2023-01-11T08:19:52.889Z,100713.13
2023-01-11T08:22:19.484Z,100719.19
2023-01-11T08:24:46.364Z,100720.00
2023-01-11T08:27:13.509Z,100727.13
2023-01-11T08:29:43.945Z,100740.22
2023-01-11T08:32:11.425Z,100750.66
2023-01-11T08:34:38.873Z,100755.06
2023-01-11T08:37:05.790Z,100763.78
2023-01-11T08:39:32.748Z,100767.28
2023-01-11T08:42:00.177Z,100772.56
2023-01-11T08:44:35.239Z,100784.75
2023-01-11T08:47:04.865Z,100777.81
2023-01-11T08:49:31.725Z,100783.03
2023-01-11T08:51:58.475Z,100796.94
2023-01-11T08:54:25.447Z,100776.13
2023-01-11T08:56:52.189Z,100783.09
2023-01-11T08:59:19.956Z,100782.16
2023-01-11T09:01:47.179Z,100802.13
2023-01-11T09:04:24.109Z,100810.00
2023-01-11T09:06:51.753Z,100809.97
2023-01-11T09:09:18.734Z,100818.75
2023-01-11T09:11:54.834Z,100822.28
2023-01-11T09:14:22.138Z,100827.53
2023-01-11T09:16:48.903Z,100833.63
2023-01-11T09:19:15.653Z,100842.34
2023-01-11T09:21:42.979Z,100842.38
2023-01-11T09:24:09.957Z,100843.16
2023-01-11T09:26:38.097Z,100847.56
2023-01-11T09:29:05.156Z,100846.72
2023-01-11T09:31:31.978Z,100856.28
2023-01-11T09:33:58.727Z,100844.13
2023-01-11T09:36:27.771Z,100852.78
2023-01-11T09:38:57.785Z,100854.56
2023-01-11T09:41:45.009Z,100859.78
2023-01-11T09:44:19.133Z,100871.09
2023-01-11T09:46:49.243Z,100865.88
2023-01-11T09:49:38.261Z,100882.41
2023-01-11T09:52:24.108Z,100887.59
2023-01-11T09:54:51.562Z,100891.94
2023-01-11T09:57:26.706Z,100894.59
2023-01-11T09:59:59.255Z,100905.00
2023-01-11T10:02:37.591Z,100910.22
2023-01-11T10:05:19.418Z,100903.28
2023-01-11T10:18:27.727Z,100910.28
2023-01-11T10:19:37.335Z,100911.09
2023-01-11T10:22:23.349Z,100917.22
2023-01-11T10:24:56.504Z,100915.50
2023-01-11T10:27:34.249Z,100923.28
2023-01-11T10:30:28.724Z,100920.66
2023-01-11T10:33:18.297Z,100915.47
2023-01-11T10:36:06.021Z,100918.03
2023-01-11T10:38:43.654Z,100918.88
2023-01-11T10:41:22.355Z,100922.41
2023-01-11T10:43:57.820Z,100922.41
2023-01-11T10:46:26.360Z,100919.81
2023-01-11T10:49:03.682Z,100924.19
2023-01-11T10:51:36.972Z,100922.41
2023-01-11T10:54:16.163Z,100925.03
2023-01-11T10:57:02.394Z,100924.19
2023-01-11T10:59:30.974Z,100929.41
2023-01-11T11:02:07.546Z,100936.38
2023-01-11T11:04:39.960Z,100929.38
2023-01-11T11:07:21.699Z,100938.91
2023-01-11T11:09:48.365Z,100952.00
2023-01-11T11:12:35.844Z,100945.00
2023-01-11T11:15:09.023Z,100945.00
2023-01-11T11:17:37.023Z,100938.00
2023-01-11T11:20:13.138Z,100941.41
2023-01-11T11:22:40.345Z,100937.91
2023-01-11T11:25:18.460Z,100932.66
2023-01-11T11:27:58.280Z,100934.47
2023-01-11T11:30:30.177Z,100937.88
2023-01-11T11:33:00.795Z,100936.13
2023-01-11T11:35:38.194Z,100948.31
2023-01-11T11:38:05.885Z,100949.22
2023-01-11T11:40:34.848Z,100951.81
2023-01-11T11:43:19.797Z,100962.25
2023-01-11T11:45:50.981Z,100975.28
2023-01-11T11:48:17.572Z,100957.84
2023-01-11T11:50:45.914Z,100957.06
2023-01-11T11:53:24.858Z,100957.06
2023-01-11T11:55:52.214Z,100960.56
2023-01-11T11:58:21.133Z,100955.34
2023-01-11T12:00:49.976Z,100955.34
2023-01-11T12:03:30.684Z,100960.56
2023-01-11T12:06:02.586Z,100960.56
2023-01-11T12:08:31.422Z,100959.66
2023-01-11T12:11:02.712Z,100962.34
2023-01-11T12:13:34.364Z,100962.34
2023-01-11T12:16:03.003Z,100957.13
2023-01-11T12:18:33.473Z,100955.44
2023-01-11T12:21:09.491Z,100958.94
2023-01-11T12:23:37.531Z,100959.81
2023-01-11T12:26:04.453Z,100948.56
2023-01-11T12:28:31.850Z,100960.72
2023-01-11T12:31:01.786Z,100960.69
2023-01-11T12:33:43.518Z,100952.00
2023-01-11T12:36:17.794Z,100964.16
2023-01-11T12:39:11.333Z,100960.66
2023-01-11T12:41:44.000Z,100954.59
2023-01-11T12:44:18.702Z,100953.69
2023-01-11T12:47:04.380Z,100949.31
2023-01-11T12:49:49.948Z,100951.94
2023-01-11T12:52:17.566Z,100971.91
2023-01-11T12:55:04.497Z,100969.31
2023-01-11T12:57:31.350Z,100970.16
2023-01-11T13:00:01.331Z,100971.91
2023-01-11T13:02:29.203Z,100981.47
2023-01-11T13:05:14.309Z,100974.50
2023-01-11T13:08:02.643Z,100984.06
2023-01-11T13:10:29.370Z,100975.34
2023-01-11T13:13:06.429Z,100986.69
2023-01-11T13:15:42.125Z,100990.16
2023-01-11T13:18:31.610Z,100988.41
2023-01-11T13:21:04.408Z,100990.13
2023-01-11T13:23:33.217Z,100990.13
2023-01-11T13:26:06.267Z,100995.34
2023-01-11T13:28:35.737Z,100993.59
2023-01-11T13:31:03.768Z,100995.34
2023-01-11T13:33:32.582Z,100995.28
2023-01-11T13:36:23.659Z,100993.53
2023-01-11T13:38:56.260Z,101000.53
2023-01-11T13:41:25.922Z,100993.53
2023-01-11T13:44:06.961Z,100999.59
2023-01-11T13:46:45.920Z,100991.75
2023-01-11T13:49:38.727Z,101001.34
2023-01-11T13:52:14.006Z,101003.91
2023-01-11T13:55:25.060Z,100995.19
2023-01-11T13:57:56.808Z,101000.50
2023-01-11T14:00:35.804Z,101010.94
2023-01-11T14:03:11.128Z,101008.31
2023-01-11T14:05:51.213Z,101009.16
2023-01-11T14:08:25.759Z,101018.69
2023-01-11T14:11:04.292Z,101027.31
2023-01-11T14:14:09.126Z,101033.41
2023-01-11T14:16:36.661Z,101031.75
2023-01-11T14:19:06.619Z,101029.13
2023-01-11T14:21:38.798Z,101022.97
2023-01-11T14:24:06.324Z,101029.09
2023-01-11T14:26:33.061Z,101033.47
2023-01-11T14:29:02.354Z,101034.31
2023-01-11T14:31:37.839Z,101049.13
2023-01-11T14:34:11.038Z,101056.06
2023-01-11T14:36:49.223Z,101057.78
2023-01-11T14:39:28.599Z,101052.59
2023-01-11T14:42:29.287Z,101056.13
2023-01-11T14:45:16.915Z,101061.34
2023-01-11T14:47:43.503Z,101059.66
2023-01-11T14:50:23.742Z,101059.63
2023-01-11T14:52:51.425Z,101060.56
2023-01-11T14:55:21.101Z,101056.19
2023-01-11T14:58:04.908Z,101047.50
2023-01-11T15:00:31.560Z,101052.72
2023-01-11T15:03:01.002Z,101042.28
2023-01-11T15:05:33.893Z,101050.09
2023-01-11T15:08:15.524Z,101052.72
2023-01-11T15:11:01.254Z,101041.44
2023-01-11T15:13:34.649Z,101044.06
2023-01-11T15:16:33.428Z,101039.72
2023-01-11T15:19:01.880Z,101033.66
2023-01-11T15:21:50.400Z,101055.44
2023-01-11T15:24:28.177Z,101058.03
2023-01-11T15:26:56.061Z,101059.78
2023-01-11T15:29:26.340Z,101062.41
2023-01-11T15:32:02.246Z,101057.19
2023-01-11T15:34:32.703Z,101061.56
2023-01-11T15:36:59.568Z,101065.03
2023-01-11T15:39:48.398Z,101070.22
2023-01-11T15:42:15.147Z,101067.59
2023-01-11T15:45:00.451Z,101067.63
2023-01-11T15:47:36.181Z,101071.97
2023-01-11T15:50:06.364Z,101073.72
2023-01-11T15:52:51.969Z,101074.56
2023-01-11T15:55:21.507Z,101078.91
2023-01-11T15:57:48.267Z,101077.16
2023-01-11T16:00:36.450Z,101073.69
2023-01-11T16:03:09.521Z,101071.94
2023-01-11T16:05:41.574Z,101071.06
2023-01-11T16:08:15.365Z,101071.94
2023-01-11T16:10:42.529Z,101076.28
2023-01-11T16:13:15.371Z,101078.03
2023-01-11T16:16:11.123Z,101084.13
2023-01-11T16:18:40.886Z,101081.50
2023-01-11T16:21:15.602Z,101086.72
2023-01-11T16:23:42.348Z,101089.28
2023-01-11T16:26:14.312Z,101091.03
2023-01-11T16:28:46.880Z,101103.19
2023-01-11T16:31:13.572Z,101111.88
2023-01-11T16:33:40.153Z,101110.13
2023-01-11T16:36:06.996Z,101111.88
2023-01-11T16:38:39.813Z,101112.75
2023-01-11T16:41:08.863Z,101120.56
2023-01-11T16:43:38.207Z,101108.44
2023-01-11T16:46:05.053Z,101117.09
2023-01-11T16:48:32.121Z,101113.63
2023-01-11T16:51:07.188Z,101113.63
2023-01-11T16:53:35.268Z,101122.28
2023-01-11T16:56:14.891Z,101121.44
2023-01-11T16:58:43.097Z,101117.09
2023-01-11T17:01:11.090Z,101124.94
2023-01-11T17:03:42.625Z,101120.56
2023-01-11T17:06:10.807Z,101130.13
2023-01-11T17:08:40.299Z,101130.97
2023-01-11T17:11:22.093Z,101132.69
2023-01-11T17:14:00.612Z,101129.25
2023-01-11T17:16:29.451Z,101136.19
2023-01-11T17:18:58.472Z,101150.03
2023-01-11T17:21:26.622Z,101156.97
2023-01-11T17:24:01.586Z,101156.97
2023-01-11T17:26:36.950Z,101158.72
2023-01-11T17:29:04.819Z,101162.19
2023-01-11T17:31:35.934Z,101160.47
2023-01-11T17:34:23.037Z,101147.44
2023-01-11T17:36:50.109Z,101151.75
2023-01-11T17:39:35.593Z,101152.59
2023-01-11T17:42:23.670Z,101155.19
2023-01-11T17:45:09.448Z,101150.00
2023-01-11T17:47:38.639Z,101147.41
2023-01-11T17:50:06.217Z,101150.03
2023-01-11T17:52:43.734Z,101143.13
2023-01-11T17:55:21.672Z,101148.34
2023-01-11T17:58:07.002Z,101160.47
2023-01-11T18:00:33.838Z,101150.09
2023-01-11T18:03:01.609Z,101151.81
2023-01-11T18:05:29.485Z,101145.72
2023-01-11T18:07:56.972Z,101138.78
2023-01-11T18:10:25.631Z,101155.25
2023-01-11T18:12:53.138Z,101157.84
2023-01-11T18:15:31.243Z,101153.53
2023-01-11T18:17:59.002Z,101144.84
2023-01-11T18:20:28.833Z,101154.41
2023-01-11T18:23:13.802Z,101155.22
2023-01-11T18:25:40.585Z,101145.63
2023-01-11T18:28:21.186Z,101150.84
2023-01-11T18:30:56.507Z,101149.97
2023-01-11T18:33:24.931Z,101149.97
2023-01-11T18:35:53.001Z,101136.06
2023-01-11T18:38:28.742Z,101129.97
2023-01-11T18:40:56.702Z,101116.94
2023-01-11T18:43:28.084Z,101125.59
2023-01-11T18:45:55.308Z,101123.88
2023-01-11T18:48:22.800Z,101129.06
2023-01-11T18:50:51.089Z,101135.97
2023-01-11T18:53:18.471Z,101121.28
2023-01-11T18:55:45.438Z,101135.19
2023-01-11T18:58:12.718Z,101129.97
2023-01-11T19:00:41.317Z,101129.97
2023-01-11T19:03:09.836Z,101123.88
2023-01-11T19:05:36.809Z,101114.34
2023-01-11T19:08:03.870Z,101108.28
2023-01-11T19:10:30.641Z,101106.53
2023-01-11T19:12:58.151Z,101123.88
2023-01-11T19:15:25.317Z,101110.84
2023-01-11T19:17:52.556Z,101114.31
2023-01-11T19:20:19.906Z,101119.56
2023-01-11T19:22:46.736Z,101127.34
2023-01-11T19:25:13.559Z,101118.66
2023-01-11T19:27:40.236Z,101105.63
2023-01-11T19:30:08.081Z,101124.72
2023-01-11T19:32:34.995Z,101113.47
2023-01-11T19:35:02.268Z,101109.94
2023-01-11T19:37:34.120Z,101116.06
2023-01-11T19:40:01.154Z,101109.97
2023-01-11T19:42:29.038Z,101116.91
2023-01-11T19:44:56.129Z,101098.66
2023-01-11T19:47:23.272Z,101109.97
2023-01-11T19:49:49.946Z,101109.13
2023-01-11T19:52:19.413Z,101107.41
2023-01-11T19:54:46.475Z,101096.13
2023-01-11T19:57:14.908Z,101089.19
2023-01-11T19:59:42.932Z,101109.16
2023-01-11T20:02:11.800Z,101090.03
2023-01-11T20:04:39.296Z,101077.03
2023-01-11T20:07:07.184Z,101078.78
2023-01-11T20:09:34.066Z,101074.47
2023-01-11T20:12:00.633Z,101051.00
2023-01-11T20:14:27.946Z,101044.06
2023-01-11T20:16:54.873Z,101047.53
2023-01-11T20:19:21.944Z,101037.13
2023-01-11T20:21:49.094Z,101028.44
2023-01-11T20:24:15.835Z,101035.38
2023-01-11T20:26:43.169Z,101037.16
2023-01-11T20:29:10.081Z,101026.72
2023-01-11T20:31:37.777Z,101033.66
2023-01-11T20:34:09.871Z,101015.44
2023-01-11T20:36:36.852Z,101017.19
2023-01-11T20:39:04.091Z,101021.53
2023-01-11T20:41:52.323Z,101032.78
2023-01-11T20:44:20.484Z,101026.72
2023-01-11T20:46:48.313Z,101014.59
2023-01-11T20:49:16.070Z,101007.66
2023-01-11T20:51:42.910Z,101019.78
2023-01-11T20:54:10.327Z,101018.03
2023-01-11T20:56:38.707Z,101021.53
2023-01-11T20:59:06.808Z,101027.59
2023-01-11T21:01:33.938Z,101025.88
2023-01-11T21:04:02.175Z,101032.84
2023-01-11T21:06:30.510Z,101031.94
2023-01-11T21:08:58.270Z,101025.00
2023-01-11T21:11:25.655Z,101007.63
2023-01-11T21:13:53.449Z,101025.00
2023-01-11T21:16:22.468Z,101024.97
2023-01-11T21:18:53.960Z,101005.03
2023-01-11T21:21:21.082Z,101010.22
2023-01-11T21:23:47.978Z,101008.50
2023-01-11T21:26:18.174Z,101005.03
2023-01-11T21:28:49.413Z,100985.91
2023-01-11T21:31:17.762Z,100983.31
2023-01-11T21:33:44.757Z,100981.56
2023-01-11T21:36:12.793Z,100992.00
2023-01-11T21:38:39.903Z,100968.56
2023-01-11T21:41:17.504Z,100974.66
2023-01-11T21:43:44.898Z,100970.34
2023-01-11T21:46:12.698Z,100960.78
2023-01-11T21:48:39.885Z,100963.38
2023-01-11T21:51:09.959Z,100969.47
2023-01-11T21:53:37.297Z,100962.50
2023-01-11T21:56:05.283Z,100942.56
2023-01-11T21:58:32.897Z,100954.72
2023-01-11T22:00:59.970Z,100951.22
2023-01-11T22:03:28.121Z,100950.34
2023-01-11T22:06:01.455Z,100964.25
2023-01-11T22:08:28.948Z,100963.38
2023-01-11T22:10:59.579Z,100956.44
2023-01-11T22:13:30.065Z,100949.47
2023-01-11T22:16:04.265Z,100965.13
2023-01-11T22:18:31.865Z,100951.22
2023-01-11T22:21:12.606Z,100987.72
2023-01-11T22:23:40.290Z,100946.88
2023-01-11T22:26:09.109Z,100959.91
2023-01-11T22:28:54.462Z,100966.84
2023-01-11T22:31:22.013Z,100971.22
2023-01-11T22:33:50.073Z,100981.63
2023-01-11T22:36:16.983Z,100986.84
2023-01-11T22:38:43.846Z,100982.47
2023-01-11T22:41:12.836Z,100978.13
2023-01-11T22:43:42.261Z,100975.53
2023-01-11T22:46:12.576Z,100986.78
2023-01-11T22:48:39.453Z,100973.78
2023-01-11T22:51:06.953Z,100976.34
2023-01-11T22:53:38.019Z,100988.50
2023-01-11T22:56:04.917Z,100977.22
2023-01-11T22:58:32.409Z,100976.34
2023-01-11T23:01:09.066Z,100999.75
2023-01-11T23:03:36.109Z,100987.56
2023-01-11T23:06:03.123Z,101000.59
2023-01-11T23:08:30.001Z,100990.16
2023-01-11T23:10:59.970Z,100997.06
2023-01-11T23:13:47.208Z,100990.97
2023-01-11T23:16:15.048Z,100986.66
2023-01-11T23:18:42.326Z,100986.63
2023-01-11T23:21:09.584Z,100992.72
2023-01-11T23:23:38.074Z,100988.34
2023-01-11T23:26:05.499Z,100978.78
2023-01-11T23:28:33.985Z,100983.16
2023-01-11T23:31:00.639Z,100982.22
2023-01-11T23:33:27.244Z,100972.72
2023-01-11T23:35:58.195Z,100962.31
2023-01-11T23:38:25.398Z,100968.38
2023-01-11T23:41:13.732Z,100970.09
2023-01-11T23:43:40.489Z,100966.63
2023-01-11T23:46:26.137Z,100953.63
2023-01-11T23:48:52.828Z,100953.59
2023-01-11T23:51:20.391Z,100938.03
2023-01-11T23:53:47.067Z,100938.88
2023-01-11T23:56:15.099Z,100945.75
2023-01-11T23:58:41.981Z,100945.78
